Spt Pearl — WDD3217 — position and weather

sailwx.info

Track history (hours):
 
Tides and Currents Weather Stations Pressure Air Temp Water Temp Dewpoint Dewpoint Depression Visibility Wind Speed Wind Dir Waves Ship Positions

Spt Pearl

Owner: SPT OFFSHORE, LLC, Freeport, TX. More information available from US FCC via Universal Licensing System and Coast Guard Vessel Documentation Center.

Last reported at 2017-Nov-15 09:15 UTC. Time now 2017-Nov-18 15:31 UTC.
Position N 32°42' W 117°09'.

Length 49 m; draft 3.5 m.

MMSI: 367127440.

Date/timePositionNaut miles runAvg speedWind from/ knotsBaromVisibWave heightAir tempDewpointWater temp
2017-Nov-15 09:15N 32°42' W 117°09'0 0.0
2017-Nov-15 08:58N 32°42' W 117°09'0 0.0
2017-Nov-15 08:30N 32°42' W 117°09'0 0.0
2017-Nov-15 07:58N 32°42' W 117°09'0 0.0
2017-Nov-15 07:28N 32°42' W 117°09'4 0.6
2017-Nov-15 00:38N 32°42' W 117°14'1 9.5
2017-Nov-15 00:30N 32°41' W 117°14'4 8.4
2017-Nov-15 00:00N 32°37' W 117°15'4 8.6
2017-Nov-14 23:30N 32°33' W 117°18'4 8.6
2017-Nov-14 23:00N 32°30' W 117°20'4 8.2
2017-Nov-14 22:30N 32°26' W 117°23'10 8.1
2017-Nov-14 21:19N 32°18' W 117°28'3 8.2
2017-Nov-14 21:00N 32°15' W 117°30'5 8.5
2017-Nov-14 20:28N 32°11' W 117°32'4 8.5
2017-Nov-14 20:00N 32°08' W 117°34'4 8.5
2017-Nov-14 19:30N 32°04' W 117°36'12 8.6
2017-Nov-14 18:05N 31°53' W 117°43'1 8.5
2017-Nov-14 18:00N 31°53' W 117°44'14 8.3
2017-Nov-14 16:21N 31°42' W 117°54'35 8.5
2017-Nov-14 12:11N 31°22' W 118°28'33 3.1
2017-Nov-14 01:24N 31°37' W 119°03'65 2.8
2017-Nov-13 02:00N 32°23' W 118°08'7 8.5
2017-Nov-13 01:09N 32°25' W 118°00'2 8.6
2017-Nov-13 00:57N 32°26' W 117°58'4 8.7
2017-Nov-13 00:28N 32°27' W 117°54'4 8.7
2017-Nov-12 23:58N 32°28' W 117°49'4 8.8
2017-Nov-12 23:30N 32°30' W 117°44'4 8.8
2017-Nov-12 23:00N 32°31' W 117°39'4 8.7
2017-Nov-12 22:30N 32°32' W 117°34'5 8.6
2017-Nov-12 21:53N 32°34' W 117°28'3 8.5
2017-Nov-12 21:30N 32°35' W 117°25'6 8.7
2017-Nov-12 20:53N 32°37' W 117°19'3 8.7
2017-Nov-12 20:30N 32°38' W 117°15'4 8.0
2017-Nov-12 20:00N 32°42' W 117°14'4 7.1
2017-Nov-12 19:28N 32°42' W 117°09'0 0.2
2017-Nov-12 18:49N 32°42' W 117°09'0 0.0
2017-Nov-12 18:26N 32°42' W 117°09'0 0.0
2017-Nov-12 17:54N 32°42' W 117°09'  
Track history (hours):
 
Tides and Currents Weather Stations Pressure Air Temp Water Temp Dewpoint Dewpoint Depression Visibility Wind Speed Wind Dir Waves Ship Positions

Spt Pearl

Owner: SPT OFFSHORE, LLC, Freeport, TX. More information available from US FCC via Universal Licensing System and Coast Guard Vessel Documentation Center.

Last reported at 2017-Nov-15 09:15 UTC. Time now 2017-Nov-18 15:31 UTC.
Position N 32°42' W 117°09'.

Length 49 m; draft 3.5 m.

MMSI: 367127440.

Date/timePositionNaut miles runAvg speedWind from/ knotsBaromVisibWave heightAir tempDewpointWater temp
2017-Nov-15 09:15N 32°42' W 117°09'0 0.0
2017-Nov-15 08:58N 32°42' W 117°09'0 0.0
2017-Nov-15 08:30N 32°42' W 117°09'0 0.0
2017-Nov-15 07:58N 32°42' W 117°09'0 0.0
2017-Nov-15 07:28N 32°42' W 117°09'4 0.6
2017-Nov-15 00:38N 32°42' W 117°14'1 9.5
2017-Nov-15 00:30N 32°41' W 117°14'4 8.4
2017-Nov-15 00:00N 32°37' W 117°15'4 8.6
2017-Nov-14 23:30N 32°33' W 117°18'4 8.6
2017-Nov-14 23:00N 32°30' W 117°20'4 8.2
2017-Nov-14 22:30N 32°26' W 117°23'10 8.1
2017-Nov-14 21:19N 32°18' W 117°28'3 8.2
2017-Nov-14 21:00N 32°15' W 117°30'5 8.5
2017-Nov-14 20:28N 32°11' W 117°32'4 8.5
2017-Nov-14 20:00N 32°08' W 117°34'4 8.5
2017-Nov-14 19:30N 32°04' W 117°36'12 8.6
2017-Nov-14 18:05N 31°53' W 117°43'1 8.5
2017-Nov-14 18:00N 31°53' W 117°44'14 8.3
2017-Nov-14 16:21N 31°42' W 117°54'35 8.5
2017-Nov-14 12:11N 31°22' W 118°28'33 3.1
2017-Nov-14 01:24N 31°37' W 119°03'65 2.8
2017-Nov-13 02:00N 32°23' W 118°08'7 8.5
2017-Nov-13 01:09N 32°25' W 118°00'2 8.6
2017-Nov-13 00:57N 32°26' W 117°58'4 8.7
2017-Nov-13 00:28N 32°27' W 117°54'4 8.7
2017-Nov-12 23:58N 32°28' W 117°49'4 8.8
2017-Nov-12 23:30N 32°30' W 117°44'4 8.8
2017-Nov-12 23:00N 32°31' W 117°39'4 8.7
2017-Nov-12 22:30N 32°32' W 117°34'5 8.6
2017-Nov-12 21:53N 32°34' W 117°28'3 8.5
2017-Nov-12 21:30N 32°35' W 117°25'6 8.7
2017-Nov-12 20:53N 32°37' W 117°19'3 8.7
2017-Nov-12 20:30N 32°38' W 117°15'4 8.0
2017-Nov-12 20:00N 32°42' W 117°14'4 7.1
2017-Nov-12 19:28N 32°42' W 117°09'0 0.2
2017-Nov-12 18:49N 32°42' W 117°09'0 0.0
2017-Nov-12 18:26N 32°42' W 117°09'0 0.0
2017-Nov-12 17:54N 32°42' W 117°09'  

Dump ship's entire track history